sensor_id;sensor_type;location;lat;lon;timestamp;temperature;humidity
66722;SHT31;53633;49.932;10.884;2022-07-04T00:01:01;17.31;69.66
66722;SHT31;53633;49.932;10.884;2022-07-04T00:03:40;17.16;70.23
66722;SHT31;53633;49.932;10.884;2022-07-04T00:06:10;17.41;69.37
66722;SHT31;53633;49.932;10.884;2022-07-04T00:08:49;17.48;68.50
66722;SHT31;53633;49.932;10.884;2022-07-04T00:11:17;17.51;68.21
66722;SHT31;53633;49.932;10.884;2022-07-04T00:13:53;17.27;68.89
66722;SHT31;53633;49.932;10.884;2022-07-04T00:16:25;17.09;69.46
66722;SHT31;53633;49.932;10.884;2022-07-04T00:18:57;17.16;69.42
66722;SHT31;53633;49.932;10.884;2022-07-04T00:21:36;17.35;69.18
66722;SHT31;53633;49.932;10.884;2022-07-04T00:24:12;17.54;68.22
66722;SHT31;53633;49.932;10.884;2022-07-04T00:26:41;17.37;67.90
66722;SHT31;53633;49.932;10.884;2022-07-04T00:29:08;17.44;68.71
66722;SHT31;53633;49.932;10.884;2022-07-04T00:31:37;17.19;69.28
66722;SHT31;53633;49.932;10.884;2022-07-04T00:34:05;17.24;69.28
66722;SHT31;53633;49.932;10.884;2022-07-04T00:36:34;17.57;68.10
66722;SHT31;53633;49.932;10.884;2022-07-04T00:39:02;17.35;67.71
66722;SHT31;53633;49.932;10.884;2022-07-04T00:41:44;17.44;68.26
66722;SHT31;53633;49.932;10.884;2022-07-04T00:44:16;17.17;68.42
66722;SHT31;53633;49.932;10.884;2022-07-04T00:46:46;16.96;69.26
66722;SHT31;53633;49.932;10.884;2022-07-04T00:49:16;17.30;69.46
66722;SHT31;53633;49.932;10.884;2022-07-04T00:51:44;17.55;67.65
66722;SHT31;53633;49.932;10.884;2022-07-04T00:54:17;17.35;68.58
66722;SHT31;53633;49.932;10.884;2022-07-04T00:56:47;17.45;68.52
66722;SHT31;53633;49.932;10.884;2022-07-04T00:59:17;17.27;69.07
66722;SHT31;53633;49.932;10.884;2022-07-04T01:01:44;17.24;69.54
66722;SHT31;53633;49.932;10.884;2022-07-04T01:04:12;17.27;69.18
66722;SHT31;53633;49.932;10.884;2022-07-04T01:06:44;17.34;69.15
66722;SHT31;53633;49.932;10.884;2022-07-04T01:09:13;17.00;69.91
66722;SHT31;53633;49.932;10.884;2022-07-04T01:11:42;16.76;71.13
66722;SHT31;53633;49.932;10.884;2022-07-04T01:14:12;16.83;71.25
66722;SHT31;53633;49.932;10.884;2022-07-04T01:16:40;16.69;71.51
66722;SHT31;53633;49.932;10.884;2022-07-04T01:19:09;16.69;71.67
66722;SHT31;53633;49.932;10.884;2022-07-04T01:21:40;16.55;72.07
66722;SHT31;53633;49.932;10.884;2022-07-04T01:24:11;16.61;72.33
66722;SHT31;53633;49.932;10.884;2022-07-04T01:26:38;16.92;71.54
66722;SHT31;53633;49.932;10.884;2022-07-04T01:29:07;17.02;71.32
66722;SHT31;53633;49.932;10.884;2022-07-04T01:31:49;17.00;71.27
66722;SHT31;53633;49.932;10.884;2022-07-04T01:34:18;16.93;71.46
66722;SHT31;53633;49.932;10.884;2022-07-04T01:36:52;17.10;71.54
66722;SHT31;53633;49.932;10.884;2022-07-04T01:39:20;16.96;71.61
66722;SHT31;53633;49.932;10.884;2022-07-04T01:41:50;16.79;72.10
66722;SHT31;53633;49.932;10.884;2022-07-04T01:44:20;16.86;72.27
66722;SHT31;53633;49.932;10.884;2022-07-04T01:46:50;16.85;72.96
66722;SHT31;53633;49.932;10.884;2022-07-04T01:49:18;16.75;73.30
66722;SHT31;53633;49.932;10.884;2022-07-04T01:51:48;16.90;73.07
66722;SHT31;53633;49.932;10.884;2022-07-04T01:54:30;16.97;72.77
66722;SHT31;53633;49.932;10.884;2022-07-04T01:56:58;16.90;72.76
66722;SHT31;53633;49.932;10.884;2022-07-04T01:59:29;16.72;73.72
66722;SHT31;53633;49.932;10.884;2022-07-04T02:01:58;16.68;74.00
66722;SHT31;53633;49.932;10.884;2022-07-04T02:04:26;16.65;73.81
66722;SHT31;53633;49.932;10.884;2022-07-04T02:07:06;16.71;73.60
66722;SHT31;53633;49.932;10.884;2022-07-04T02:09:39;16.93;73.22
66722;SHT31;53633;49.932;10.884;2022-07-04T02:12:15;16.90;72.76
66722;SHT31;53633;49.932;10.884;2022-07-04T02:14:48;16.75;73.45
66722;SHT31;53633;49.932;10.884;2022-07-04T02:17:16;16.65;73.88
66722;SHT31;53633;49.932;10.884;2022-07-04T02:19:49;16.72;73.74
66722;SHT31;53633;49.932;10.884;2022-07-04T02:22:18;17.28;72.11
66722;SHT31;53633;49.932;10.884;2022-07-04T02:25:01;17.45;71.50
66722;SHT31;53633;49.932;10.884;2022-07-04T02:27:33;17.34;71.94
66722;SHT31;53633;49.932;10.884;2022-07-04T02:30:05;17.57;71.39
66722;SHT31;53633;49.932;10.884;2022-07-04T02:32:39;17.58;71.14
66722;SHT31;53633;49.932;10.884;2022-07-04T02:35:08;17.44;71.61
66722;SHT31;53633;49.932;10.884;2022-07-04T02:37:37;17.07;72.96
66722;SHT31;53633;49.932;10.884;2022-07-04T02:40:09;16.75;74.49
66722;SHT31;53633;49.932;10.884;2022-07-04T02:42:37;16.51;75.41
66722;SHT31;53633;49.932;10.884;2022-07-04T02:45:07;16.51;75.75
66722;SHT31;53633;49.932;10.884;2022-07-04T02:47:37;16.51;75.77
66722;SHT31;53633;49.932;10.884;2022-07-04T02:50:05;16.61;75.66
66722;SHT31;53633;49.932;10.884;2022-07-04T02:52:34;16.79;75.27
66722;SHT31;53633;49.932;10.884;2022-07-04T02:55:07;17.03;73.86
66722;SHT31;53633;49.932;10.884;2022-07-04T02:57:35;17.31;73.09
66722;SHT31;53633;49.932;10.884;2022-07-04T03:00:09;17.22;73.38
66722;SHT31;53633;49.932;10.884;2022-07-04T03:02:38;17.02;73.90
66722;SHT31;53633;49.932;10.884;2022-07-04T03:05:08;16.78;74.81
66722;SHT31;53633;49.932;10.884;2022-07-04T03:07:37;16.69;75.03
66722;SHT31;53633;49.932;10.884;2022-07-04T03:10:10;16.58;75.81
66722;SHT31;53633;49.932;10.884;2022-07-04T03:12:39;16.44;76.19
66722;SHT31;53633;49.932;10.884;2022-07-04T03:15:08;16.35;76.31
66722;SHT31;53633;49.932;10.884;2022-07-04T03:17:45;16.32;76.40
66722;SHT31;53633;49.932;10.884;2022-07-04T03:20:15;16.48;76.24
66722;SHT31;53633;49.932;10.884;2022-07-04T03:22:53;16.51;76.38
66722;SHT31;53633;49.932;10.884;2022-07-04T03:25:30;16.71;75.68
66722;SHT31;53633;49.932;10.884;2022-07-04T03:27:58;17.10;74.95
66722;SHT31;53633;49.932;10.884;2022-07-04T03:30:28;17.10;73.76
66722;SHT31;53633;49.932;10.884;2022-07-04T03:32:57;17.07;74.22
66722;SHT31;53633;49.932;10.884;2022-07-04T03:35:26;17.26;73.30
66722;SHT31;53633;49.932;10.884;2022-07-04T03:37:55;17.34;72.84
66722;SHT31;53633;49.932;10.884;2022-07-04T03:40:23;17.40;72.77
66722;SHT31;53633;49.932;10.884;2022-07-04T03:43:06;17.41;72.56
66722;SHT31;53633;49.932;10.884;2022-07-04T03:45:34;17.17;73.53
66722;SHT31;53633;49.932;10.884;2022-07-04T03:48:04;17.13;73.94
66722;SHT31;53633;49.932;10.884;2022-07-04T03:50:40;16.86;74.41
66722;SHT31;53633;49.932;10.884;2022-07-04T03:53:13;17.37;72.46
66722;SHT31;53633;49.932;10.884;2022-07-04T03:55:41;17.51;71.70
66722;SHT31;53633;49.932;10.884;2022-07-04T03:58:12;17.54;71.42
66722;SHT31;53633;49.932;10.884;2022-07-04T04:00:50;17.85;69.95
66722;SHT31;53633;49.932;10.884;2022-07-04T04:03:18;18.29;68.61
66722;SHT31;53633;49.932;10.884;2022-07-04T04:05:47;18.45;67.52
66722;SHT31;53633;49.932;10.884;2022-07-04T04:08:16;18.67;67.03
66722;SHT31;53633;49.932;10.884;2022-07-04T04:10:43;18.85;66.99
66722;SHT31;53633;49.932;10.884;2022-07-04T04:13:27;19.02;66.54
66722;SHT31;53633;49.932;10.884;2022-07-04T04:15:55;19.33;65.46
66722;SHT31;53633;49.932;10.884;2022-07-04T04:18:23;20.23;62.48
66722;SHT31;53633;49.932;10.884;2022-07-04T04:21:09;20.91;60.60
66722;SHT31;53633;49.932;10.884;2022-07-04T04:23:40;20.70;61.04
66722;SHT31;53633;49.932;10.884;2022-07-04T04:26:08;20.74;61.24
66722;SHT31;53633;49.932;10.884;2022-07-04T04:28:40;21.80;58.04
66722;SHT31;53633;49.932;10.884;2022-07-04T04:31:08;22.08;57.19
66722;SHT31;53633;49.932;10.884;2022-07-04T04:33:41;22.56;55.71
66722;SHT31;53633;49.932;10.884;2022-07-04T04:36:14;21.60;58.26
66722;SHT31;53633;49.932;10.884;2022-07-04T04:38:49;20.84;60.91
66722;SHT31;53633;49.932;10.884;2022-07-04T04:41:20;20.50;62.30
66722;SHT31;53633;49.932;10.884;2022-07-04T04:43:53;20.28;63.19
66722;SHT31;53633;49.932;10.884;2022-07-04T04:46:22;20.12;63.36
66722;SHT31;53633;49.932;10.884;2022-07-04T04:48:55;20.64;62.15
66722;SHT31;53633;49.932;10.884;2022-07-04T04:51:27;20.80;61.21
66722;SHT31;53633;49.932;10.884;2022-07-04T04:53:56;20.53;62.05
66722;SHT31;53633;49.932;10.884;2022-07-04T04:56:23;20.36;62.49
66722;SHT31;53633;49.932;10.884;2022-07-04T04:58:58;20.29;62.61
66722;SHT31;53633;49.932;10.884;2022-07-04T05:01:27;20.92;61.18
66722;SHT31;53633;49.932;10.884;2022-07-04T05:04:11;21.57;59.32
66722;SHT31;53633;49.932;10.884;2022-07-04T05:06:42;22.11;58.01
66722;SHT31;53633;49.932;10.884;2022-07-04T05:09:10;22.90;55.07
66722;SHT31;53633;49.932;10.884;2022-07-04T05:11:38;23.44;53.78
66722;SHT31;53633;49.932;10.884;2022-07-04T05:14:09;23.86;52.67
66722;SHT31;53633;49.932;10.884;2022-07-04T05:16:36;24.68;51.63
66722;SHT31;53633;49.932;10.884;2022-07-04T05:19:08;24.75;50.38
66722;SHT31;53633;49.932;10.884;2022-07-04T05:21:38;24.68;50.85
66722;SHT31;53633;49.932;10.884;2022-07-04T05:24:10;25.09;48.75
66722;SHT31;53633;49.932;10.884;2022-07-04T05:26:38;25.84;47.41
66722;SHT31;53633;49.932;10.884;2022-07-04T05:29:05;26.08;46.85
66722;SHT31;53633;49.932;10.884;2022-07-04T05:31:34;26.28;46.31
66722;SHT31;53633;49.932;10.884;2022-07-04T05:34:03;26.92;45.69
66722;SHT31;53633;49.932;10.884;2022-07-04T05:36:31;27.12;44.93
66722;SHT31;53633;49.932;10.884;2022-07-04T05:39:01;26.92;44.89
66722;SHT31;53633;49.932;10.884;2022-07-04T05:41:33;26.33;46.16
66722;SHT31;53633;49.932;10.884;2022-07-04T05:44:02;26.68;46.47
66722;SHT31;53633;49.932;10.884;2022-07-04T05:46:31;27.18;45.25
66722;SHT31;53633;49.932;10.884;2022-07-04T05:49:10;27.45;44.57
66722;SHT31;53633;49.932;10.884;2022-07-04T05:51:50;27.56;43.60
66722;SHT31;53633;49.932;10.884;2022-07-04T05:54:22;25.98;46.86
66722;SHT31;53633;49.932;10.884;2022-07-04T05:56:49;24.83;49.73
66722;SHT31;53633;49.932;10.884;2022-07-04T05:59:22;24.14;51.68
66722;SHT31;53633;49.932;10.884;2022-07-04T06:01:55;24.69;51.01
66722;SHT31;53633;49.932;10.884;2022-07-04T06:04:29;25.92;48.55
66722;SHT31;53633;49.932;10.884;2022-07-04T06:06:59;25.80;48.34
66722;SHT31;53633;49.932;10.884;2022-07-04T06:09:31;26.87;45.56
66722;SHT31;53633;49.932;10.884;2022-07-04T06:12:05;27.84;43.51
66722;SHT31;53633;49.932;10.884;2022-07-04T06:14:35;28.72;41.58
66722;SHT31;53633;49.932;10.884;2022-07-04T06:17:04;28.64;42.20
66722;SHT31;53633;49.932;10.884;2022-07-04T06:19:41;28.76;41.21
66722;SHT31;53633;49.932;10.884;2022-07-04T06:22:21;28.70;41.49
66722;SHT31;53633;49.932;10.884;2022-07-04T06:24:56;28.64;41.78
66722;SHT31;53633;49.932;10.884;2022-07-04T06:27:33;26.95;44.90
66722;SHT31;53633;49.932;10.884;2022-07-04T06:30:09;26.01;47.38
66722;SHT31;53633;49.932;10.884;2022-07-04T06:32:44;25.28;48.80
66722;SHT31;53633;49.932;10.884;2022-07-04T06:35:18;25.77;47.53
66722;SHT31;53633;49.932;10.884;2022-07-04T06:37:47;26.03;46.79
66722;SHT31;53633;49.932;10.884;2022-07-04T06:40:25;27.46;43.80
66722;SHT31;53633;49.932;10.884;2022-07-04T06:43:02;27.87;43.62
66722;SHT31;53633;49.932;10.884;2022-07-04T06:45:31;28.63;41.93
66722;SHT31;53633;49.932;10.884;2022-07-04T06:48:00;29.14;41.14
66722;SHT31;53633;49.932;10.884;2022-07-04T06:50:34;28.89;40.88
66722;SHT31;53633;49.932;10.884;2022-07-04T06:53:09;29.14;40.62
66722;SHT31;53633;49.932;10.884;2022-07-04T06:55:40;29.31;40.30
66722;SHT31;53633;49.932;10.884;2022-07-04T06:58:08;28.73;40.73
66722;SHT31;53633;49.932;10.884;2022-07-04T07:00:37;29.28;39.73
66722;SHT31;53633;49.932;10.884;2022-07-04T07:03:07;29.41;39.86
66722;SHT31;53633;49.932;10.884;2022-07-04T07:05:38;29.41;40.17
66722;SHT31;53633;49.932;10.884;2022-07-04T07:08:26;29.87;39.01
66722;SHT31;53633;49.932;10.884;2022-07-04T07:11:04;29.87;39.13
66722;SHT31;53633;49.932;10.884;2022-07-04T07:13:37;29.01;40.36
66722;SHT31;53633;49.932;10.884;2022-07-04T07:16:07;28.79;41.49
66722;SHT31;53633;49.932;10.884;2022-07-04T07:18:35;28.08;42.07
66722;SHT31;53633;49.932;10.884;2022-07-04T07:21:11;26.77;44.33
66722;SHT31;53633;49.932;10.884;2022-07-04T07:23:49;26.01;46.15
66722;SHT31;53633;49.932;10.884;2022-07-04T07:26:18;25.60;47.00
66722;SHT31;53633;49.932;10.884;2022-07-04T07:28:55;25.34;48.04
66722;SHT31;53633;49.932;10.884;2022-07-04T07:31:24;26.08;46.89
66722;SHT31;53633;49.932;10.884;2022-07-04T07:33:55;27.26;45.26
66722;SHT31;53633;49.932;10.884;2022-07-04T07:36:26;27.86;42.95
66722;SHT31;53633;49.932;10.884;2022-07-04T07:38:54;27.80;42.55
66722;SHT31;53633;49.932;10.884;2022-07-04T07:41:22;28.05;43.64
66722;SHT31;53633;49.932;10.884;2022-07-04T07:44:02;28.56;42.07
66722;SHT31;53633;49.932;10.884;2022-07-04T07:46:34;29.34;39.75
66722;SHT31;53633;49.932;10.884;2022-07-04T07:49:07;29.15;40.15
66722;SHT31;53633;49.932;10.884;2022-07-04T07:51:40;29.24;40.41
66722;SHT31;53633;49.932;10.884;2022-07-04T07:54:24;29.80;39.20
66722;SHT31;53633;49.932;10.884;2022-07-04T07:57:14;30.09;38.29
66722;SHT31;53633;49.932;10.884;2022-07-04T07:59:45;30.21;38.91
66722;SHT31;53633;49.932;10.884;2022-07-04T08:02:16;29.94;40.17
66722;SHT31;53633;49.932;10.884;2022-07-04T08:04:47;30.57;37.36
66722;SHT31;53633;49.932;10.884;2022-07-04T08:07:17;30.85;37.21
66722;SHT31;53633;49.932;10.884;2022-07-04T08:09:50;30.93;36.15
66722;SHT31;53633;49.932;10.884;2022-07-04T08:12:19;31.03;36.97
66722;SHT31;53633;49.932;10.884;2022-07-04T08:14:48;31.09;36.13
66722;SHT31;53633;49.932;10.884;2022-07-04T08:17:19;31.37;36.09
66722;SHT31;53633;49.932;10.884;2022-07-04T08:19:47;31.47;35.18
66722;SHT31;53633;49.932;10.884;2022-07-04T08:22:24;31.95;35.39
66722;SHT31;53633;49.932;10.884;2022-07-04T08:24:58;32.02;34.64
66722;SHT31;53633;49.932;10.884;2022-07-04T08:27:29;32.37;35.37
66722;SHT31;53633;49.932;10.884;2022-07-04T08:30:00;32.43;35.99
66722;SHT31;53633;49.932;10.884;2022-07-04T08:32:29;32.57;35.29
66722;SHT31;53633;49.932;10.884;2022-07-04T08:35:09;32.75;33.31
66722;SHT31;53633;49.932;10.884;2022-07-04T08:37:41;32.82;34.03
66722;SHT31;53633;49.932;10.884;2022-07-04T08:40:12;33.12;33.81
66722;SHT31;53633;49.932;10.884;2022-07-04T08:42:41;33.22;34.89
66722;SHT31;53633;49.932;10.884;2022-07-04T08:45:10;33.02;32.64
66722;SHT31;53633;49.932;10.884;2022-07-04T08:47:43;32.49;33.98
66722;SHT31;53633;49.932;10.884;2022-07-04T08:50:15;32.82;32.75
66722;SHT31;53633;49.932;10.884;2022-07-04T08:52:51;33.14;34.38
66722;SHT31;53633;49.932;10.884;2022-07-04T08:55:27;33.30;33.47
66722;SHT31;53633;49.932;10.884;2022-07-04T08:58:05;33.69;32.76
66722;SHT31;53633;49.932;10.884;2022-07-04T09:00:35;34.24;32.84
66722;SHT31;53633;49.932;10.884;2022-07-04T09:03:04;34.85;30.75
66722;SHT31;53633;49.932;10.884;2022-07-04T09:05:38;34.75;30.52
66722;SHT31;53633;49.932;10.884;2022-07-04T09:08:11;34.03;32.30
66722;SHT31;53633;49.932;10.884;2022-07-04T09:10:38;33.96;31.55
66722;SHT31;53633;49.932;10.884;2022-07-04T09:13:20;34.41;31.78
66722;SHT31;53633;49.932;10.884;2022-07-04T09:15:52;34.75;31.04
66722;SHT31;53633;49.932;10.884;2022-07-04T09:18:23;34.38;31.08
66722;SHT31;53633;49.932;10.884;2022-07-04T09:20:56;34.58;29.95
66722;SHT31;53633;49.932;10.884;2022-07-04T09:23:32;33.69;31.81
66722;SHT31;53633;49.932;10.884;2022-07-04T09:26:18;34.53;31.43
66722;SHT31;53633;49.932;10.884;2022-07-04T09:28:52;34.86;30.95
66722;SHT31;53633;49.932;10.884;2022-07-04T09:31:22;34.42;31.40
66722;SHT31;53633;49.932;10.884;2022-07-04T09:33:53;34.65;30.64
66722;SHT31;53633;49.932;10.884;2022-07-04T09:36:24;33.94;32.11
66722;SHT31;53633;49.932;10.884;2022-07-04T09:39:11;33.76;32.00
66722;SHT31;53633;49.932;10.884;2022-07-04T09:41:57;33.42;32.38
66722;SHT31;53633;49.932;10.884;2022-07-04T09:44:43;33.07;33.97
66722;SHT31;53633;49.932;10.884;2022-07-04T09:47:23;33.04;33.03
66722;SHT31;53633;49.932;10.884;2022-07-04T09:49:58;34.05;30.81
66722;SHT31;53633;49.932;10.884;2022-07-04T09:52:31;34.53;30.65
66722;SHT31;53633;49.932;10.884;2022-07-04T09:55:04;34.96;30.57
66722;SHT31;53633;49.932;10.884;2022-07-04T09:57:56;34.08;31.28
66722;SHT31;53633;49.932;10.884;2022-07-04T10:00:25;33.59;31.85
66722;SHT31;53633;49.932;10.884;2022-07-04T10:02:56;34.10;30.30
66722;SHT31;53633;49.932;10.884;2022-07-04T10:05:28;33.91;29.32
66722;SHT31;53633;49.932;10.884;2022-07-04T10:07:57;33.69;27.70
66722;SHT31;53633;49.932;10.884;2022-07-04T10:10:33;33.87;28.92
66722;SHT31;53633;49.932;10.884;2022-07-04T10:13:06;33.56;30.34
66722;SHT31;53633;49.932;10.884;2022-07-04T10:15:36;33.23;30.61
66722;SHT31;53633;49.932;10.884;2022-07-04T10:18:04;32.33;31.64
66722;SHT31;53633;49.932;10.884;2022-07-04T10:20:32;31.96;31.40
66722;SHT31;53633;49.932;10.884;2022-07-04T10:23:00;31.57;31.84
66722;SHT31;53633;49.932;10.884;2022-07-04T10:25:32;31.60;31.56
66722;SHT31;53633;49.932;10.884;2022-07-04T10:28:01;31.67;31.83
66722;SHT31;53633;49.932;10.884;2022-07-04T10:30:43;31.43;30.69
66722;SHT31;53633;49.932;10.884;2022-07-04T10:33:12;31.26;30.68
66722;SHT31;53633;49.932;10.884;2022-07-04T10:35:47;31.02;30.28
66722;SHT31;53633;49.932;10.884;2022-07-04T10:38:15;30.82;30.91
66722;SHT31;53633;49.932;10.884;2022-07-04T10:40:49;30.75;30.33
66722;SHT31;53633;49.932;10.884;2022-07-04T10:46:48;31.00;31.37
66722;SHT31;53633;49.932;10.884;2022-07-04T10:49:24;30.79;31.64
66722;SHT31;53633;49.932;10.884;2022-07-04T10:51:53;30.92;30.68
66722;SHT31;53633;49.932;10.884;2022-07-04T10:54:22;30.93;31.06
66722;SHT31;53633;49.932;10.884;2022-07-04T10:57:09;30.37;32.42
66722;SHT31;53633;49.932;10.884;2022-07-04T10:59:39;30.04;32.91
66722;SHT31;53633;49.932;10.884;2022-07-04T11:02:26;30.23;33.29
66722;SHT31;53633;49.932;10.884;2022-07-04T11:04:58;30.30;32.55
66722;SHT31;53633;49.932;10.884;2022-07-04T11:07:58;30.18;32.25
66722;SHT31;53633;49.932;10.884;2022-07-04T11:10:28;30.51;33.17
66722;SHT31;53633;49.932;10.884;2022-07-04T11:13:20;30.09;34.53
66722;SHT31;53633;49.932;10.884;2022-07-04T11:16:02;30.04;33.34
66722;SHT31;53633;49.932;10.884;2022-07-04T11:18:38;30.20;33.89
66722;SHT31;53633;49.932;10.884;2022-07-04T11:21:19;30.80;32.91
66722;SHT31;53633;49.932;10.884;2022-07-04T11:23:55;30.61;33.82
66722;SHT31;53633;49.932;10.884;2022-07-04T11:26:26;30.79;33.42
66722;SHT31;53633;49.932;10.884;2022-07-04T11:28:57;30.75;34.10
66722;SHT31;53633;49.932;10.884;2022-07-04T11:31:37;30.69;34.02
66722;SHT31;53633;49.932;10.884;2022-07-04T11:34:07;30.71;33.01
66722;SHT31;53633;49.932;10.884;2022-07-04T11:36:34;30.51;33.51
66722;SHT31;53633;49.932;10.884;2022-07-04T11:39:06;30.90;33.03
66722;SHT31;53633;49.932;10.884;2022-07-04T11:41:35;30.83;33.60
66722;SHT31;53633;49.932;10.884;2022-07-04T11:44:06;30.52;32.66
66722;SHT31;53633;49.932;10.884;2022-07-04T11:46:48;30.64;32.93
66722;SHT31;53633;49.932;10.884;2022-07-04T11:49:20;30.97;32.26
66722;SHT31;53633;49.932;10.884;2022-07-04T11:51:49;30.64;33.76
66722;SHT31;53633;49.932;10.884;2022-07-04T11:54:17;30.69;33.45
66722;SHT31;53633;49.932;10.884;2022-07-04T11:57:14;30.96;31.58
66722;SHT31;53633;49.932;10.884;2022-07-04T11:59:55;30.86;32.75
66722;SHT31;53633;49.932;10.884;2022-07-04T12:02:23;30.92;30.45
66722;SHT31;53633;49.932;10.884;2022-07-04T12:04:53;30.95;32.07
66722;SHT31;53633;49.932;10.884;2022-07-04T12:07:23;30.97;31.75
66722;SHT31;53633;49.932;10.884;2022-07-04T12:09:52;31.04;31.17
66722;SHT31;53633;49.932;10.884;2022-07-04T12:12:20;31.00;32.93
66722;SHT31;53633;49.932;10.884;2022-07-04T12:15:02;30.75;28.47
66722;SHT31;53633;49.932;10.884;2022-07-04T12:17:35;30.44;30.02
66722;SHT31;53633;49.932;10.884;2022-07-04T12:20:10;30.62;27.55
66722;SHT31;53633;49.932;10.884;2022-07-04T12:22:41;30.64;28.08
66722;SHT31;53633;49.932;10.884;2022-07-04T12:25:23;30.58;27.29
66722;SHT31;53633;49.932;10.884;2022-07-04T12:28:00;30.38;28.78
66722;SHT31;53633;49.932;10.884;2022-07-04T12:30:39;30.31;29.10
66722;SHT31;53633;49.932;10.884;2022-07-04T12:33:12;30.10;28.65
66722;SHT31;53633;49.932;10.884;2022-07-04T12:35:45;30.09;29.53
66722;SHT31;53633;49.932;10.884;2022-07-04T12:38:21;29.96;30.27
66722;SHT31;53633;49.932;10.884;2022-07-04T12:41:10;29.67;29.36
66722;SHT31;53633;49.932;10.884;2022-07-04T12:43:52;29.66;29.84
66722;SHT31;53633;49.932;10.884;2022-07-04T12:46:29;29.66;29.25
66722;SHT31;53633;49.932;10.884;2022-07-04T12:48:59;29.80;30.23
66722;SHT31;53633;49.932;10.884;2022-07-04T12:51:30;29.75;29.11
66722;SHT31;53633;49.932;10.884;2022-07-04T12:54:06;29.76;28.99
66722;SHT31;53633;49.932;10.884;2022-07-04T12:56:42;29.66;29.37
66722;SHT31;53633;49.932;10.884;2022-07-04T12:59:12;29.58;28.90
66722;SHT31;53633;49.932;10.884;2022-07-04T13:01:50;29.44;29.10
66722;SHT31;53633;49.932;10.884;2022-07-04T13:04:17;29.32;30.46
66722;SHT31;53633;49.932;10.884;2022-07-04T13:06:47;29.29;31.01
66722;SHT31;53633;49.932;10.884;2022-07-04T13:09:25;29.35;31.05
66722;SHT31;53633;49.932;10.884;2022-07-04T13:11:53;29.39;30.29
66722;SHT31;53633;49.932;10.884;2022-07-04T13:14:22;29.51;32.74
66722;SHT31;53633;49.932;10.884;2022-07-04T13:17:00;29.51;31.99
66722;SHT31;53633;49.932;10.884;2022-07-04T13:19:31;29.52;30.58
66722;SHT31;53633;49.932;10.884;2022-07-04T13:22:07;29.39;30.60
66722;SHT31;53633;49.932;10.884;2022-07-04T13:24:38;29.35;31.76
66722;SHT31;53633;49.932;10.884;2022-07-04T13:27:08;29.44;30.26
66722;SHT31;53633;49.932;10.884;2022-07-04T13:29:43;29.34;31.07
66722;SHT31;53633;49.932;10.884;2022-07-04T13:32:22;29.31;31.50
66722;SHT31;53633;49.932;10.884;2022-07-04T13:35:00;29.18;31.33
66722;SHT31;53633;49.932;10.884;2022-07-04T13:37:32;29.04;31.82
66722;SHT31;53633;49.932;10.884;2022-07-04T13:40:01;28.97;32.50
66722;SHT31;53633;49.932;10.884;2022-07-04T13:42:29;28.91;31.95
66722;SHT31;53633;49.932;10.884;2022-07-04T13:44:57;28.97;31.12
66722;SHT31;53633;49.932;10.884;2022-07-04T13:47:26;29.18;31.13
66722;SHT31;53633;49.932;10.884;2022-07-04T13:49:55;29.25;31.90
66722;SHT31;53633;49.932;10.884;2022-07-04T13:52:24;29.29;30.74
66722;SHT31;53633;49.932;10.884;2022-07-04T13:55:05;29.14;31.11
66722;SHT31;53633;49.932;10.884;2022-07-04T13:57:36;29.20;31.67
66722;SHT31;53633;49.932;10.884;2022-07-04T14:00:06;29.08;31.35
66722;SHT31;53633;49.932;10.884;2022-07-04T14:02:42;29.08;31.90
66722;SHT31;53633;49.932;10.884;2022-07-04T14:05:09;29.27;31.03
66722;SHT31;53633;49.932;10.884;2022-07-04T14:07:42;29.32;31.68
66722;SHT31;53633;49.932;10.884;2022-07-04T14:10:19;29.47;31.92
66722;SHT31;53633;49.932;10.884;2022-07-04T14:12:54;29.32;30.96
66722;SHT31;53633;49.932;10.884;2022-07-04T14:15:22;29.31;30.13
66722;SHT31;53633;49.932;10.884;2022-07-04T14:17:55;29.21;31.07
66722;SHT31;53633;49.932;10.884;2022-07-04T14:20:25;29.15;31.15
66722;SHT31;53633;49.932;10.884;2022-07-04T14:22:53;29.00;31.35
66722;SHT31;53633;49.932;10.884;2022-07-04T14:25:22;29.00;31.55
66722;SHT31;53633;49.932;10.884;2022-07-04T14:27:55;28.97;32.00
66722;SHT31;53633;49.932;10.884;2022-07-04T14:30:24;29.00;31.48
66722;SHT31;53633;49.932;10.884;2022-07-04T14:33:02;28.99;30.16
66722;SHT31;53633;49.932;10.884;2022-07-04T14:35:32;28.83;31.16
66722;SHT31;53633;49.932;10.884;2022-07-04T14:38:01;28.70;30.89
66722;SHT31;53633;49.932;10.884;2022-07-04T14:40:30;28.59;31.49
66722;SHT31;53633;49.932;10.884;2022-07-04T14:43:02;28.60;31.55
66722;SHT31;53633;49.932;10.884;2022-07-04T14:45:32;28.51;31.45
66722;SHT31;53633;49.932;10.884;2022-07-04T14:48:06;28.59;31.74
66722;SHT31;53633;49.932;10.884;2022-07-04T14:50:35;28.57;31.92
66722;SHT31;53633;49.932;10.884;2022-07-04T14:53:04;28.57;31.73
66722;SHT31;53633;49.932;10.884;2022-07-04T14:55:41;28.51;31.61
66722;SHT31;53633;49.932;10.884;2022-07-04T14:58:08;28.49;30.68
66722;SHT31;53633;49.932;10.884;2022-07-04T15:00:37;28.55;31.24
66722;SHT31;53633;49.932;10.884;2022-07-04T15:03:06;28.53;30.55
66722;SHT31;53633;49.932;10.884;2022-07-04T15:05:34;28.48;30.50
66722;SHT31;53633;49.932;10.884;2022-07-04T15:08:01;28.46;31.91
66722;SHT31;53633;49.932;10.884;2022-07-04T15:10:28;28.38;30.32
66722;SHT31;53633;49.932;10.884;2022-07-04T15:13:17;28.32;31.09
66722;SHT31;53633;49.932;10.884;2022-07-04T15:15:53;28.24;31.44
66722;SHT31;53633;49.932;10.884;2022-07-04T15:18:50;28.17;31.89
66722;SHT31;53633;49.932;10.884;2022-07-04T15:21:18;28.21;31.35
66722;SHT31;53633;49.932;10.884;2022-07-04T15:23:48;28.18;31.83
66722;SHT31;53633;49.932;10.884;2022-07-04T15:26:20;28.22;30.76
66722;SHT31;53633;49.932;10.884;2022-07-04T15:28:48;28.32;30.38
66722;SHT31;53633;49.932;10.884;2022-07-04T15:31:16;28.35;29.81
66722;SHT31;53633;49.932;10.884;2022-07-04T15:33:48;28.21;29.56
66722;SHT31;53633;49.932;10.884;2022-07-04T15:36:16;28.22;29.28
66722;SHT31;53633;49.932;10.884;2022-07-04T15:38:44;28.26;30.05
66722;SHT31;53633;49.932;10.884;2022-07-04T15:41:12;28.18;30.43
66722;SHT31;53633;49.932;10.884;2022-07-04T15:43:40;28.21;30.12
66722;SHT31;53633;49.932;10.884;2022-07-04T15:46:07;28.22;30.54
66722;SHT31;53633;49.932;10.884;2022-07-04T15:48:39;28.25;30.08
66722;SHT31;53633;49.932;10.884;2022-07-04T15:51:13;28.26;30.69